sensor_id;sensor_type;location;lat;lon;timestamp;temperature;humidity
8261;DHT22;64115;50.170;8.242;2023-09-19T00:00:25;14.80;99.90
8261;DHT22;64115;50.170;8.242;2023-09-19T00:02:53;14.80;99.90
8261;DHT22;64115;50.170;8.242;2023-09-19T00:05:22;14.80;99.90
8261;DHT22;64115;50.170;8.242;2023-09-19T00:07:50;14.80;99.90
8261;DHT22;64115;50.170;8.242;2023-09-19T00:10:19;14.80;99.90
8261;DHT22;64115;50.170;8.242;2023-09-19T00:12:47;14.70;99.90
8261;DHT22;64115;50.170;8.242;2023-09-19T00:15:14;14.60;99.90
8261;DHT22;64115;50.170;8.242;2023-09-19T00:17:43;14.60;99.90
8261;DHT22;64115;50.170;8.242;2023-09-19T00:20:11;14.60;99.90
8261;DHT22;64115;50.170;8.242;2023-09-19T00:22:40;14.60;99.90
8261;DHT22;64115;50.170;8.242;2023-09-19T00:25:08;14.60;99.90
8261;DHT22;64115;50.170;8.242;2023-09-19T00:27:37;14.60;99.90
8261;DHT22;64115;50.170;8.242;2023-09-19T00:30:08;14.60;99.90
8261;DHT22;64115;50.170;8.242;2023-09-19T00:32:40;14.60;99.90
8261;DHT22;64115;50.170;8.242;2023-09-19T00:35:07;14.70;99.90
8261;DHT22;64115;50.170;8.242;2023-09-19T00:37:34;14.60;99.90
8261;DHT22;64115;50.170;8.242;2023-09-19T00:40:03;14.60;99.90
8261;DHT22;64115;50.170;8.242;2023-09-19T00:42:31;14.60;99.90
8261;DHT22;64115;50.170;8.242;2023-09-19T00:44:59;14.60;99.90
8261;DHT22;64115;50.170;8.242;2023-09-19T00:47:29;14.70;99.90
8261;DHT22;64115;50.170;8.242;2023-09-19T00:49:56;14.70;99.90
8261;DHT22;64115;50.170;8.242;2023-09-19T00:52:24;14.60;99.90
8261;DHT22;64115;50.170;8.242;2023-09-19T00:54:51;14.50;99.90
8261;DHT22;64115;50.170;8.242;2023-09-19T00:57:19;14.40;99.90
8261;DHT22;64115;50.170;8.242;2023-09-19T00:59:48;14.30;99.90
8261;DHT22;64115;50.170;8.242;2023-09-19T01:02:17;14.30;99.90
8261;DHT22;64115;50.170;8.242;2023-09-19T01:04:44;14.20;99.90
8261;DHT22;64115;50.170;8.242;2023-09-19T01:07:11;14.20;99.90
8261;DHT22;64115;50.170;8.242;2023-09-19T01:09:42;14.10;99.90
8261;DHT22;64115;50.170;8.242;2023-09-19T01:12:09;14.10;99.90
8261;DHT22;64115;50.170;8.242;2023-09-19T01:14:44;14.10;99.90
8261;DHT22;64115;50.170;8.242;2023-09-19T01:17:17;14.20;99.90
8261;DHT22;64115;50.170;8.242;2023-09-19T01:20:09;14.20;99.90
8261;DHT22;64115;50.170;8.242;2023-09-19T01:22:47;14.20;99.90
8261;DHT22;64115;50.170;8.242;2023-09-19T01:25:41;14.20;99.90
8261;DHT22;64115;50.170;8.242;2023-09-19T01:28:20;14.20;99.90
8261;DHT22;64115;50.170;8.242;2023-09-19T01:30:56;14.10;99.90
8261;DHT22;64115;50.170;8.242;2023-09-19T01:33:24;14.10;99.90
8261;DHT22;64115;50.170;8.242;2023-09-19T01:35:51;14.00;99.90
8261;DHT22;64115;50.170;8.242;2023-09-19T01:38:24;14.00;99.90
8261;DHT22;64115;50.170;8.242;2023-09-19T01:40:57;13.90;99.90
8261;DHT22;64115;50.170;8.242;2023-09-19T01:43:29;13.90;99.90
8261;DHT22;64115;50.170;8.242;2023-09-19T01:46:05;13.80;99.90
8261;DHT22;64115;50.170;8.242;2023-09-19T01:48:41;13.80;99.90
8261;DHT22;64115;50.170;8.242;2023-09-19T01:51:16;13.80;99.90
8261;DHT22;64115;50.170;8.242;2023-09-19T01:53:53;13.70;99.90
8261;DHT22;64115;50.170;8.242;2023-09-19T01:56:28;13.70;99.90
8261;DHT22;64115;50.170;8.242;2023-09-19T01:58:58;13.70;99.90
8261;DHT22;64115;50.170;8.242;2023-09-19T02:01:28;13.60;99.90
8261;DHT22;64115;50.170;8.242;2023-09-19T02:03:55;13.60;99.90
8261;DHT22;64115;50.170;8.242;2023-09-19T02:06:22;13.60;99.90
8261;DHT22;64115;50.170;8.242;2023-09-19T02:08:50;13.50;99.90
8261;DHT22;64115;50.170;8.242;2023-09-19T02:11:17;13.50;99.90
8261;DHT22;64115;50.170;8.242;2023-09-19T02:13:44;13.40;99.90
8261;DHT22;64115;50.170;8.242;2023-09-19T02:16:11;13.40;99.90
8261;DHT22;64115;50.170;8.242;2023-09-19T02:18:39;13.40;99.90
8261;DHT22;64115;50.170;8.242;2023-09-19T02:21:06;13.30;99.90
8261;DHT22;64115;50.170;8.242;2023-09-19T02:23:35;13.30;99.90
8261;DHT22;64115;50.170;8.242;2023-09-19T02:26:02;13.20;99.90
8261;DHT22;64115;50.170;8.242;2023-09-19T02:28:30;13.20;99.90
8261;DHT22;64115;50.170;8.242;2023-09-19T02:30:57;13.20;99.90
8261;DHT22;64115;50.170;8.242;2023-09-19T02:33:24;13.10;99.90
8261;DHT22;64115;50.170;8.242;2023-09-19T02:35:56;13.00;99.90
8261;DHT22;64115;50.170;8.242;2023-09-19T02:38:24;12.90;99.90
8261;DHT22;64115;50.170;8.242;2023-09-19T02:40:51;12.90;99.90
8261;DHT22;64115;50.170;8.242;2023-09-19T02:43:18;12.90;99.90
8261;DHT22;64115;50.170;8.242;2023-09-19T02:45:46;12.90;99.90
8261;DHT22;64115;50.170;8.242;2023-09-19T02:48:15;12.90;99.90
8261;DHT22;64115;50.170;8.242;2023-09-19T02:50:42;12.80;99.90
8261;DHT22;64115;50.170;8.242;2023-09-19T02:53:11;12.80;99.90
8261;DHT22;64115;50.170;8.242;2023-09-19T02:55:39;12.80;99.90
8261;DHT22;64115;50.170;8.242;2023-09-19T02:58:07;12.70;99.90
8261;DHT22;64115;50.170;8.242;2023-09-19T03:00:36;12.60;99.90
8261;DHT22;64115;50.170;8.242;2023-09-19T03:03:04;12.60;99.90
8261;DHT22;64115;50.170;8.242;2023-09-19T03:05:32;12.60;99.90
8261;DHT22;64115;50.170;8.242;2023-09-19T03:07:59;12.60;99.90
8261;DHT22;64115;50.170;8.242;2023-09-19T03:10:28;12.50;99.90
8261;DHT22;64115;50.170;8.242;2023-09-19T03:12:56;12.50;99.90
8261;DHT22;64115;50.170;8.242;2023-09-19T03:15:23;12.50;99.90
8261;DHT22;64115;50.170;8.242;2023-09-19T03:17:50;12.50;99.90
8261;DHT22;64115;50.170;8.242;2023-09-19T03:20:19;12.40;99.90
8261;DHT22;64115;50.170;8.242;2023-09-19T03:22:46;12.30;99.90
8261;DHT22;64115;50.170;8.242;2023-09-19T03:25:13;12.20;99.90
8261;DHT22;64115;50.170;8.242;2023-09-19T03:27:42;12.20;99.90
8261;DHT22;64115;50.170;8.242;2023-09-19T03:30:09;12.20;99.90
8261;DHT22;64115;50.170;8.242;2023-09-19T03:32:44;12.20;99.90
8261;DHT22;64115;50.170;8.242;2023-09-19T03:35:11;12.10;99.90
8261;DHT22;64115;50.170;8.242;2023-09-19T03:37:39;12.10;99.90
8261;DHT22;64115;50.170;8.242;2023-09-19T03:40:07;12.00;99.90
8261;DHT22;64115;50.170;8.242;2023-09-19T03:42:38;12.00;99.90
8261;DHT22;64115;50.170;8.242;2023-09-19T03:45:07;12.00;99.90
8261;DHT22;64115;50.170;8.242;2023-09-19T03:47:37;12.00;99.90
8261;DHT22;64115;50.170;8.242;2023-09-19T03:50:05;12.00;99.90
8261;DHT22;64115;50.170;8.242;2023-09-19T03:52:32;12.00;99.90
8261;DHT22;64115;50.170;8.242;2023-09-19T03:54:59;12.10;99.90
8261;DHT22;64115;50.170;8.242;2023-09-19T03:57:28;12.10;99.90
8261;DHT22;64115;50.170;8.242;2023-09-19T03:59:54;12.10;99.90
8261;DHT22;64115;50.170;8.242;2023-09-19T04:02:23;12.20;99.90
8261;DHT22;64115;50.170;8.242;2023-09-19T04:04:50;12.20;99.90
8261;DHT22;64115;50.170;8.242;2023-09-19T04:07:17;12.20;99.90
8261;DHT22;64115;50.170;8.242;2023-09-19T04:09:47;12.20;99.90
8261;DHT22;64115;50.170;8.242;2023-09-19T04:12:14;12.30;99.90
8261;DHT22;64115;50.170;8.242;2023-09-19T04:14:42;12.30;99.90
8261;DHT22;64115;50.170;8.242;2023-09-19T04:17:09;12.30;99.90
8261;DHT22;64115;50.170;8.242;2023-09-19T04:19:37;12.30;99.90
8261;DHT22;64115;50.170;8.242;2023-09-19T04:22:04;12.30;99.90
8261;DHT22;64115;50.170;8.242;2023-09-19T04:24:31;12.30;99.90
8261;DHT22;64115;50.170;8.242;2023-09-19T04:26:59;12.30;99.90
8261;DHT22;64115;50.170;8.242;2023-09-19T04:29:26;12.40;99.90
8261;DHT22;64115;50.170;8.242;2023-09-19T04:31:55;12.40;99.90
8261;DHT22;64115;50.170;8.242;2023-09-19T04:34:23;12.40;99.90
8261;DHT22;64115;50.170;8.242;2023-09-19T04:36:51;12.30;99.90
8261;DHT22;64115;50.170;8.242;2023-09-19T04:39:18;12.30;99.90
8261;DHT22;64115;50.170;8.242;2023-09-19T04:41:46;12.30;99.90
8261;DHT22;64115;50.170;8.242;2023-09-19T04:44:13;12.30;99.90
8261;DHT22;64115;50.170;8.242;2023-09-19T04:46:41;12.30;99.90
8261;DHT22;64115;50.170;8.242;2023-09-19T04:49:07;12.30;99.90
8261;DHT22;64115;50.170;8.242;2023-09-19T04:51:34;12.20;99.90
8261;DHT22;64115;50.170;8.242;2023-09-19T04:54:03;12.20;99.90
8261;DHT22;64115;50.170;8.242;2023-09-19T04:56:30;12.20;99.90
8261;DHT22;64115;50.170;8.242;2023-09-19T04:58:57;12.20;99.90
8261;DHT22;64115;50.170;8.242;2023-09-19T05:01:24;12.20;99.90
8261;DHT22;64115;50.170;8.242;2023-09-19T05:03:51;12.10;99.90
8261;DHT22;64115;50.170;8.242;2023-09-19T05:06:18;12.00;99.90
8261;DHT22;64115;50.170;8.242;2023-09-19T05:08:46;12.00;99.90
8261;DHT22;64115;50.170;8.242;2023-09-19T05:11:18;11.90;99.90
8261;DHT22;64115;50.170;8.242;2023-09-19T05:13:44;11.90;99.90
8261;DHT22;64115;50.170;8.242;2023-09-19T05:16:11;11.90;99.90
8261;DHT22;64115;50.170;8.242;2023-09-19T05:18:38;11.90;99.90
8261;DHT22;64115;50.170;8.242;2023-09-19T05:21:05;12.00;99.90
8261;DHT22;64115;50.170;8.242;2023-09-19T05:23:33;12.00;99.90
8261;DHT22;64115;50.170;8.242;2023-09-19T05:26:00;12.00;99.90
8261;DHT22;64115;50.170;8.242;2023-09-19T05:28:28;12.10;99.90
8261;DHT22;64115;50.170;8.242;2023-09-19T05:30:55;12.10;99.90
8261;DHT22;64115;50.170;8.242;2023-09-19T05:33:24;12.10;99.90
8261;DHT22;64115;50.170;8.242;2023-09-19T05:35:53;12.10;99.90
8261;DHT22;64115;50.170;8.242;2023-09-19T05:38:19;12.10;99.90
8261;DHT22;64115;50.170;8.242;2023-09-19T05:40:46;12.10;99.90
8261;DHT22;64115;50.170;8.242;2023-09-19T05:43:13;12.10;99.90
8261;DHT22;64115;50.170;8.242;2023-09-19T05:45:42;12.10;99.90
8261;DHT22;64115;50.170;8.242;2023-09-19T05:48:09;12.10;99.90
8261;DHT22;64115;50.170;8.242;2023-09-19T05:50:37;12.20;99.90
8261;DHT22;64115;50.170;8.242;2023-09-19T05:53:04;12.20;99.90
8261;DHT22;64115;50.170;8.242;2023-09-19T05:55:31;12.40;99.90
8261;DHT22;64115;50.170;8.242;2023-09-19T05:57:57;12.40;99.90
8261;DHT22;64115;50.170;8.242;2023-09-19T06:00:25;12.50;99.90
8261;DHT22;64115;50.170;8.242;2023-09-19T06:02:55;12.60;99.90
8261;DHT22;64115;50.170;8.242;2023-09-19T06:05:23;12.60;99.90
8261;DHT22;64115;50.170;8.242;2023-09-19T06:07:52;12.70;99.90
8261;DHT22;64115;50.170;8.242;2023-09-19T06:10:19;12.80;99.90
8261;DHT22;64115;50.170;8.242;2023-09-19T06:12:48;12.80;99.90
8261;DHT22;64115;50.170;8.242;2023-09-19T06:15:16;12.90;99.90
8261;DHT22;64115;50.170;8.242;2023-09-19T06:17:47;12.90;99.90
8261;DHT22;64115;50.170;8.242;2023-09-19T06:20:15;13.00;99.90
8261;DHT22;64115;50.170;8.242;2023-09-19T06:22:43;13.10;99.90
8261;DHT22;64115;50.170;8.242;2023-09-19T06:25:10;13.20;99.90
8261;DHT22;64115;50.170;8.242;2023-09-19T06:27:39;13.30;99.90
8261;DHT22;64115;50.170;8.242;2023-09-19T06:30:08;13.40;99.90
8261;DHT22;64115;50.170;8.242;2023-09-19T06:32:37;13.50;99.90
8261;DHT22;64115;50.170;8.242;2023-09-19T06:35:04;13.50;99.90
8261;DHT22;64115;50.170;8.242;2023-09-19T06:37:34;13.60;99.90
8261;DHT22;64115;50.170;8.242;2023-09-19T06:40:01;13.60;99.90
8261;DHT22;64115;50.170;8.242;2023-09-19T06:42:31;13.60;99.90
8261;DHT22;64115;50.170;8.242;2023-09-19T06:44:58;13.70;99.90
8261;DHT22;64115;50.170;8.242;2023-09-19T06:47:25;13.80;99.90
8261;DHT22;64115;50.170;8.242;2023-09-19T06:49:52;13.80;99.90
8261;DHT22;64115;50.170;8.242;2023-09-19T06:52:19;13.80;99.90
8261;DHT22;64115;50.170;8.242;2023-09-19T06:54:49;13.80;99.90
8261;DHT22;64115;50.170;8.242;2023-09-19T06:57:18;13.90;99.90
8261;DHT22;64115;50.170;8.242;2023-09-19T06:59:45;13.90;99.90
8261;DHT22;64115;50.170;8.242;2023-09-19T07:02:12;14.00;99.90
8261;DHT22;64115;50.170;8.242;2023-09-19T07:04:39;14.10;99.90
8261;DHT22;64115;50.170;8.242;2023-09-19T07:07:06;14.20;99.90
8261;DHT22;64115;50.170;8.242;2023-09-19T07:09:34;14.20;99.90
8261;DHT22;64115;50.170;8.242;2023-09-19T07:12:02;14.20;99.90
8261;DHT22;64115;50.170;8.242;2023-09-19T07:14:29;14.20;99.90
8261;DHT22;64115;50.170;8.242;2023-09-19T07:16:56;14.30;99.90
8261;DHT22;64115;50.170;8.242;2023-09-19T07:19:26;14.20;99.90
8261;DHT22;64115;50.170;8.242;2023-09-19T07:21:53;14.30;99.90
8261;DHT22;64115;50.170;8.242;2023-09-19T07:24:20;14.40;99.90
8261;DHT22;64115;50.170;8.242;2023-09-19T07:26:48;14.50;99.90
8261;DHT22;64115;50.170;8.242;2023-09-19T07:29:19;14.50;99.90
8261;DHT22;64115;50.170;8.242;2023-09-19T07:31:46;14.60;99.90
8261;DHT22;64115;50.170;8.242;2023-09-19T07:34:13;14.70;99.90
8261;DHT22;64115;50.170;8.242;2023-09-19T07:36:40;14.80;99.90
8261;DHT22;64115;50.170;8.242;2023-09-19T07:39:07;14.80;99.90
8261;DHT22;64115;50.170;8.242;2023-09-19T07:41:34;14.80;99.90
8261;DHT22;64115;50.170;8.242;2023-09-19T07:44:01;14.80;99.90
8261;DHT22;64115;50.170;8.242;2023-09-19T07:46:29;14.80;99.90
8261;DHT22;64115;50.170;8.242;2023-09-19T07:48:56;14.80;99.90
8261;DHT22;64115;50.170;8.242;2023-09-19T07:51:23;14.70;99.90
8261;DHT22;64115;50.170;8.242;2023-09-19T07:53:50;14.70;99.90
8261;DHT22;64115;50.170;8.242;2023-09-19T07:56:18;14.60;99.90
8261;DHT22;64115;50.170;8.242;2023-09-19T07:58:45;14.80;99.90
8261;DHT22;64115;50.170;8.242;2023-09-19T08:01:13;14.80;99.90
8261;DHT22;64115;50.170;8.242;2023-09-19T08:03:43;14.90;99.90
8261;DHT22;64115;50.170;8.242;2023-09-19T08:06:10;15.00;99.90
8261;DHT22;64115;50.170;8.242;2023-09-19T08:08:40;15.00;99.90
8261;DHT22;64115;50.170;8.242;2023-09-19T08:11:07;15.10;99.90
8261;DHT22;64115;50.170;8.242;2023-09-19T08:13:37;15.20;99.90
8261;DHT22;64115;50.170;8.242;2023-09-19T08:16:08;15.30;99.90
8261;DHT22;64115;50.170;8.242;2023-09-19T08:18:35;15.30;99.90
8261;DHT22;64115;50.170;8.242;2023-09-19T08:21:03;15.40;99.90
8261;DHT22;64115;50.170;8.242;2023-09-19T08:23:30;15.40;99.90
8261;DHT22;64115;50.170;8.242;2023-09-19T08:25:58;15.50;99.90
8261;DHT22;64115;50.170;8.242;2023-09-19T08:28:28;15.60;99.90
8261;DHT22;64115;50.170;8.242;2023-09-19T08:31:02;15.60;99.90
8261;DHT22;64115;50.170;8.242;2023-09-19T08:33:33;15.70;99.90
8261;DHT22;64115;50.170;8.242;2023-09-19T08:36:03;15.60;99.90
8261;DHT22;64115;50.170;8.242;2023-09-19T08:38:31;15.70;99.90
8261;DHT22;64115;50.170;8.242;2023-09-19T08:41:00;15.70;99.90
8261;DHT22;64115;50.170;8.242;2023-09-19T08:43:46;15.70;99.90
8261;DHT22;64115;50.170;8.242;2023-09-19T08:46:16;15.70;99.90
8261;DHT22;64115;50.170;8.242;2023-09-19T08:49:05;15.80;99.90
8261;DHT22;64115;50.170;8.242;2023-09-19T08:51:59;15.90;99.90
8261;DHT22;64115;50.170;8.242;2023-09-19T08:54:31;16.10;99.90
8261;DHT22;64115;50.170;8.242;2023-09-19T08:57:01;16.30;99.90
8261;DHT22;64115;50.170;8.242;2023-09-19T08:59:30;16.30;99.90
8261;DHT22;64115;50.170;8.242;2023-09-19T09:02:00;16.30;99.90
8261;DHT22;64115;50.170;8.242;2023-09-19T09:04:29;16.30;99.90
8261;DHT22;64115;50.170;8.242;2023-09-19T09:06:57;16.30;99.90
8261;DHT22;64115;50.170;8.242;2023-09-19T09:09:28;16.30;99.90
8261;DHT22;64115;50.170;8.242;2023-09-19T09:11:55;16.40;99.90
8261;DHT22;64115;50.170;8.242;2023-09-19T09:14:24;16.30;99.90
8261;DHT22;64115;50.170;8.242;2023-09-19T09:16:51;16.40;99.90
8261;DHT22;64115;50.170;8.242;2023-09-19T09:19:22;16.50;99.90
8261;DHT22;64115;50.170;8.242;2023-09-19T09:21:50;16.60;99.90
8261;DHT22;64115;50.170;8.242;2023-09-19T09:24:28;16.60;99.90
8261;DHT22;64115;50.170;8.242;2023-09-19T09:26:58;16.60;99.90
8261;DHT22;64115;50.170;8.242;2023-09-19T09:29:44;16.60;99.90
8261;DHT22;64115;50.170;8.242;2023-09-19T09:32:20;16.70;99.90
8261;DHT22;64115;50.170;8.242;2023-09-19T09:34:50;16.90;99.90
8261;DHT22;64115;50.170;8.242;2023-09-19T09:37:17;16.90;99.90
8261;DHT22;64115;50.170;8.242;2023-09-19T09:39:51;16.90;99.90
8261;DHT22;64115;50.170;8.242;2023-09-19T09:42:32;17.00;99.90
8261;DHT22;64115;50.170;8.242;2023-09-19T09:45:14;17.10;99.90
8261;DHT22;64115;50.170;8.242;2023-09-19T09:47:43;17.30;99.90
8261;DHT22;64115;50.170;8.242;2023-09-19T09:50:26;17.40;99.90
8261;DHT22;64115;50.170;8.242;2023-09-19T09:52:55;17.60;99.90
8261;DHT22;64115;50.170;8.242;2023-09-19T09:55:30;17.60;99.90
8261;DHT22;64115;50.170;8.242;2023-09-19T09:58:16;17.60;99.90
8261;DHT22;64115;50.170;8.242;2023-09-19T10:00:52;17.50;99.90
8261;DHT22;64115;50.170;8.242;2023-09-19T10:03:31;17.60;99.90
8261;DHT22;64115;50.170;8.242;2023-09-19T10:06:00;17.60;99.90
8261;DHT22;64115;50.170;8.242;2023-09-19T10:08:34;17.60;99.90
8261;DHT22;64115;50.170;8.242;2023-09-19T10:11:15;17.70;99.90
8261;DHT22;64115;50.170;8.242;2023-09-19T10:13:43;17.90;99.90
8261;DHT22;64115;50.170;8.242;2023-09-19T10:16:13;18.00;99.90
8261;DHT22;64115;50.170;8.242;2023-09-19T10:18:46;18.10;99.90
8261;DHT22;64115;50.170;8.242;2023-09-19T10:21:15;18.10;99.90
8261;DHT22;64115;50.170;8.242;2023-09-19T10:23:48;18.10;99.90
8261;DHT22;64115;50.170;8.242;2023-09-19T10:26:19;18.20;99.90
8261;DHT22;64115;50.170;8.242;2023-09-19T10:28:50;18.40;99.90
8261;DHT22;64115;50.170;8.242;2023-09-19T10:31:19;18.60;99.90
8261;DHT22;64115;50.170;8.242;2023-09-19T10:33:47;18.70;99.90
8261;DHT22;64115;50.170;8.242;2023-09-19T10:36:16;18.70;99.90
8261;DHT22;64115;50.170;8.242;2023-09-19T10:38:45;18.70;99.90
8261;DHT22;64115;50.170;8.242;2023-09-19T10:41:16;18.70;99.90
8261;DHT22;64115;50.170;8.242;2023-09-19T10:43:48;18.50;99.90
8261;DHT22;64115;50.170;8.242;2023-09-19T10:46:15;18.40;99.90
8261;DHT22;64115;50.170;8.242;2023-09-19T10:48:42;18.20;99.90
8261;DHT22;64115;50.170;8.242;2023-09-19T10:51:16;18.20;99.90
8261;DHT22;64115;50.170;8.242;2023-09-19T10:53:48;18.30;99.90
8261;DHT22;64115;50.170;8.242;2023-09-19T10:56:21;18.10;99.90
8261;DHT22;64115;50.170;8.242;2023-09-19T10:58:51;18.10;99.90
8261;DHT22;64115;50.170;8.242;2023-09-19T11:01:19;18.20;99.90
8261;DHT22;64115;50.170;8.242;2023-09-19T11:03:48;18.20;99.90
8261;DHT22;64115;50.170;8.242;2023-09-19T11:06:19;18.20;99.90
8261;DHT22;64115;50.170;8.242;2023-09-19T11:09:00;18.10;99.90
8261;DHT22;64115;50.170;8.242;2023-09-19T11:11:46;17.90;99.90
8261;DHT22;64115;50.170;8.242;2023-09-19T11:14:40;17.80;99.90
8261;DHT22;64115;50.170;8.242;2023-09-19T11:17:40;17.90;99.90
8261;DHT22;64115;50.170;8.242;2023-09-19T11:20:21;18.10;99.90
8261;DHT22;64115;50.170;8.242;2023-09-19T11:23:21;18.40;99.90
8261;DHT22;64115;50.170;8.242;2023-09-19T11:25:55;18.30;99.90
8261;DHT22;64115;50.170;8.242;2023-09-19T11:28:29;18.40;99.90
8261;DHT22;64115;50.170;8.242;2023-09-19T11:30:58;18.30;99.90
8261;DHT22;64115;50.170;8.242;2023-09-19T11:33:26;18.20;99.90
8261;DHT22;64115;50.170;8.242;2023-09-19T11:36:00;17.90;99.90
8261;DHT22;64115;50.170;8.242;2023-09-19T11:41:40;17.90;99.90
8261;DHT22;64115;50.170;8.242;2023-09-19T11:44:34;17.90;99.90
8261;DHT22;64115;50.170;8.242;2023-09-19T11:47:09;18.00;99.90
8261;DHT22;64115;50.170;8.242;2023-09-19T11:49:40;18.00;99.90
8261;DHT22;64115;50.170;8.242;2023-09-19T11:52:08;17.90;99.90
8261;DHT22;64115;50.170;8.242;2023-09-19T11:54:36;17.90;99.90
8261;DHT22;64115;50.170;8.242;2023-09-19T11:57:08;17.90;99.90
8261;DHT22;64115;50.170;8.242;2023-09-19T11:59:38;17.90;99.90
8261;DHT22;64115;50.170;8.242;2023-09-19T12:02:10;18.00;99.90
8261;DHT22;64115;50.170;8.242;2023-09-19T12:04:44;18.10;99.90
8261;DHT22;64115;50.170;8.242;2023-09-19T12:07:15;18.30;99.90
8261;DHT22;64115;50.170;8.242;2023-09-19T12:09:47;18.30;99.90
8261;DHT22;64115;50.170;8.242;2023-09-19T12:12:19;18.30;99.90
8261;DHT22;64115;50.170;8.242;2023-09-19T12:14:48;18.50;99.90
8261;DHT22;64115;50.170;8.242;2023-09-19T12:17:16;18.70;99.90
8261;DHT22;64115;50.170;8.242;2023-09-19T12:19:50;18.80;99.90
8261;DHT22;64115;50.170;8.242;2023-09-19T12:22:17;19.00;99.90
8261;DHT22;64115;50.170;8.242;2023-09-19T12:24:46;19.10;99.90
8261;DHT22;64115;50.170;8.242;2023-09-19T12:27:14;19.20;99.90
8261;DHT22;64115;50.170;8.242;2023-09-19T12:29:44;19.10;99.90
8261;DHT22;64115;50.170;8.242;2023-09-19T12:32:12;19.30;99.90
8261;DHT22;64115;50.170;8.242;2023-09-19T12:34:50;19.30;99.90
8261;DHT22;64115;50.170;8.242;2023-09-19T12:37:18;19.30;99.90
8261;DHT22;64115;50.170;8.242;2023-09-19T12:39:49;19.30;99.90
8261;DHT22;64115;50.170;8.242;2023-09-19T12:42:18;19.30;99.90
8261;DHT22;64115;50.170;8.242;2023-09-19T12:44:46;19.30;99.90
8261;DHT22;64115;50.170;8.242;2023-09-19T12:47:16;19.30;99.90
8261;DHT22;64115;50.170;8.242;2023-09-19T12:50:11;19.30;99.90
8261;DHT22;64115;50.170;8.242;2023-09-19T12:52:45;19.40;99.90
8261;DHT22;64115;50.170;8.242;2023-09-19T12:55:23;19.40;99.90
8261;DHT22;64115;50.170;8.242;2023-09-19T12:58:07;19.50;99.90
8261;DHT22;64115;50.170;8.242;2023-09-19T13:00:36;19.50;99.90
8261;DHT22;64115;50.170;8.242;2023-09-19T13:03:14;19.60;99.90
8261;DHT22;64115;50.170;8.242;2023-09-19T13:05:49;19.50;99.90
8261;DHT22;64115;50.170;8.242;2023-09-19T13:08:18;19.60;99.90
8261;DHT22;64115;50.170;8.242;2023-09-19T13:11:06;19.60;99.90
8261;DHT22;64115;50.170;8.242;2023-09-19T13:13:36;19.60;99.90
8261;DHT22;64115;50.170;8.242;2023-09-19T13:16:03;19.60;99.90
8261;DHT22;64115;50.170;8.242;2023-09-19T13:18:42;19.60;99.90
8261;DHT22;64115;50.170;8.242;2023-09-19T13:21:12;19.50;99.90
8261;DHT22;64115;50.170;8.242;2023-09-19T13:23:49;19.20;99.90
8261;DHT22;64115;50.170;8.242;2023-09-19T13:26:16;19.00;99.90
8261;DHT22;64115;50.170;8.242;2023-09-19T13:28:42;18.70;99.90
8261;DHT22;64115;50.170;8.242;2023-09-19T13:31:10;18.30;99.90
8261;DHT22;64115;50.170;8.242;2023-09-19T13:33:43;18.20;99.90
8261;DHT22;64115;50.170;8.242;2023-09-19T13:36:14;18.10;99.90
8261;DHT22;64115;50.170;8.242;2023-09-19T13:38:41;18.00;99.90
8261;DHT22;64115;50.170;8.242;2023-09-19T13:41:09;18.10;99.90
8261;DHT22;64115;50.170;8.242;2023-09-19T13:43:36;18.10;99.90
8261;DHT22;64115;50.170;8.242;2023-09-19T13:46:04;18.20;99.90
8261;DHT22;64115;50.170;8.242;2023-09-19T13:48:33;18.40;99.90
8261;DHT22;64115;50.170;8.242;2023-09-19T13:51:02;18.50;99.90
8261;DHT22;64115;50.170;8.242;2023-09-19T13:53:30;18.60;99.90
8261;DHT22;64115;50.170;8.242;2023-09-19T13:55:57;18.50;99.90
8261;DHT22;64115;50.170;8.242;2023-09-19T13:58:24;18.40;99.90
8261;DHT22;64115;50.170;8.242;2023-09-19T14:00:52;18.40;99.90
8261;DHT22;64115;50.170;8.242;2023-09-19T14:03:20;18.30;99.90
8261;DHT22;64115;50.170;8.242;2023-09-19T14:05:48;18.30;99.90
8261;DHT22;64115;50.170;8.242;2023-09-19T14:08:17;18.30;99.90
8261;DHT22;64115;50.170;8.242;2023-09-19T14:10:45;18.20;99.90
8261;DHT22;64115;50.170;8.242;2023-09-19T14:13:12;18.20;99.90
8261;DHT22;64115;50.170;8.242;2023-09-19T14:18:56;18.20;99.90
8261;DHT22;64115;50.170;8.242;2023-09-19T14:21:23;18.10;99.90
8261;DHT22;64115;50.170;8.242;2023-09-19T14:23:50;18.00;99.90
8261;DHT22;64115;50.170;8.242;2023-09-19T14:26:18;17.90;99.90
8261;DHT22;64115;50.170;8.242;2023-09-19T14:28:45;17.90;99.90
8261;DHT22;64115;50.170;8.242;2023-09-19T14:31:12;17.90;99.90
8261;DHT22;64115;50.170;8.242;2023-09-19T14:33:40;17.90;99.90
8261;DHT22;64115;50.170;8.242;2023-09-19T14:36:08;18.00;99.90
8261;DHT22;64115;50.170;8.242;2023-09-19T14:38:37;18.00;99.90
8261;DHT22;64115;50.170;8.242;2023-09-19T14:41:07;17.90;99.90
8261;DHT22;64115;50.170;8.242;2023-09-19T14:43:35;17.90;99.90
8261;DHT22;64115;50.170;8.242;2023-09-19T14:46:03;17.90;99.90
8261;DHT22;64115;50.170;8.242;2023-09-19T14:48:30;17.80;99.90
8261;DHT22;64115;50.170;8.242;2023-09-19T14:51:02;17.70;99.90
8261;DHT22;64115;50.170;8.242;2023-09-19T14:53:29;17.60;99.90
8261;DHT22;64115;50.170;8.242;2023-09-19T14:55:55;17.50;99.90
8261;DHT22;64115;50.170;8.242;2023-09-19T14:58:22;17.40;99.90
8261;DHT22;64115;50.170;8.242;2023-09-19T15:00:52;17.20;99.90
8261;DHT22;64115;50.170;8.242;2023-09-19T15:03:20;17.20;99.90
8261;DHT22;64115;50.170;8.242;2023-09-19T15:05:47;17.10;99.90
8261;DHT22;64115;50.170;8.242;2023-09-19T15:08:13;17.00;99.90
8261;DHT22;64115;50.170;8.242;2023-09-19T15:10:41;17.00;99.90
8261;DHT22;64115;50.170;8.242;2023-09-19T15:13:07;17.10;99.90
8261;DHT22;64115;50.170;8.242;2023-09-19T15:15:34;17.20;99.90
8261;DHT22;64115;50.170;8.242;2023-09-19T15:18:03;17.20;99.90
8261;DHT22;64115;50.170;8.242;2023-09-19T15:20:30;17.30;99.90
8261;DHT22;64115;50.170;8.242;2023-09-19T15:22:57;17.20;99.90
8261;DHT22;64115;50.170;8.242;2023-09-19T15:25:25;17.10;99.90
8261;DHT22;64115;50.170;8.242;2023-09-19T15:27:53;17.10;99.90
8261;DHT22;64115;50.170;8.242;2023-09-19T15:30:19;17.00;99.90
8261;DHT22;64115;50.170;8.242;2023-09-19T15:32:46;17.00;99.90
8261;DHT22;64115;50.170;8.242;2023-09-19T15:35:15;17.00;99.90
8261;DHT22;64115;50.170;8.242;2023-09-19T15:37:43;17.00;99.90
8261;DHT22;64115;50.170;8.242;2023-09-19T15:40:10;17.10;99.90
8261;DHT22;64115;50.170;8.242;2023-09-19T15:42:39;17.00;99.90
8261;DHT22;64115;50.170;8.242;2023-09-19T15:45:06;17.00;99.90
8261;DHT22;64115;50.170;8.242;2023-09-19T15:47:35;17.00;99.90
8261;DHT22;64115;50.170;8.242;2023-09-19T15:50:03;17.00;99.90
8261;DHT22;64115;50.170;8.242;2023-09-19T15:52:32;17.00;99.90
8261;DHT22;64115;50.170;8.242;2023-09-19T15:54:59;17.00;99.90
8261;DHT22;64115;50.170;8.242;2023-09-19T15:57:25;16.90;99.90
8261;DHT22;64115;50.170;8.242;2023-09-19T15:59:53;16.90;99.90
8261;DHT22;64115;50.170;8.242;2023-09-19T16:02:20;16.90;99.90
8261;DHT22;64115;50.170;8.242;2023-09-19T16:04:47;16.80;99.90
8261;DHT22;64115;50.170;8.242;2023-09-19T16:07:14;16.70;99.90